Pagina principale
METAR-TAF:

METAR-TAF

Aeroporti :

Augusta, Germania

latitudine: 48-26N, longitudine: 010-56E, altezza: 461 m

Osservazione

Il bollettino è stato emesso 25 minuti fa, alle 16:50 UTC
Vento 4 kt da nord/nord-ovest, variando fra ovest/sud-ovest e nord/nord-est
Temperature 18°C
Umidità 49%
Pressione 1017 hPa
Visibilità 10 km o più
nessuna nube inferiore a 1500 m e nessun cumulonembo

METAR: EDMA 131650Z 33004KT 240V030 CAVOK 18/07 Q1017

Ora: 19:15 (17:15 UTC)

Previsione

Il bollettino è stato emesso 3 ore e 15 minuti fa, alle 14:00 UTC
Previsione valida dal 13 alle 15 UTC al 13 alle 24 UTC
Vento 3 kt da direzioni variabili
Visibilità 10 km o più
Poco nuvoloso ad un'altezza di 4500 ft

TAF: EDMA 131400Z 1315/1324 VRB03KT 9999 FEW045

Osservazioni e previsioni meteorologiche di più di 4000 aeroporti (messaggi METAR e TAF).

Le stazioni disponibili sono rappresentate dai dischi gialli e rossi sulla carta.

Puntare il mouse per vedere il nome della stazione.

Clicca sopra per visualizzare le osservazioni e previsioni meteorologiche.

Per cambiare la mappa : fare clic sui pulsanti verdi con una croce nera per ingrandire, il pulsante verde con un trattino per diminuire, o sulla freccia verde per le mappe adiacenti.


METAR-TAF: